Time;durP1;ratioP1;P1;durP2;ratioP2;P2;SDS_P1;SDS_P2;PMS_P1;PMS_P2;Temp;Humidity;BMP_temperature;BMP_pressure;BME280_temperature;BME280_humidity;BME280_pressure;Samples;Min_cycle;Max_cycle;Signal;HPM_P1;HPM_P2
2021/09/14 00:01:48;;;;;;;11.77;6.20;;;;;;;16.07;82.17;101545.88;4974040;28;20043;-62
2021/09/14 00:04:16;;;;;;;9.95;6.68;;;;;;;16.08;82.17;101548.34;4973520;28;20043;-61
2021/09/14 00:06:44;;;;;;;9.70;5.78;;;;;;;16.07;82.24;101541.19;4973791;28;20046;-62
2021/09/14 00:09:11;;;;;;;9.02;6.05;;;;;;;16.12;81.96;101532.91;4974305;28;20038;-62
2021/09/14 00:11:42;;;;;;;9.05;6.03;;;;;;;16.16;81.82;101527.63;4972245;28;20039;-62
2021/09/14 00:14:09;;;;;;;9.73;6.07;;;;;;;16.14;81.43;101530.69;4972574;28;20049;-62
2021/09/14 00:16:37;;;;;;;7.85;5.65;;;;;;;16.10;81.49;101529.63;4973502;28;20043;-60
2021/09/14 00:19:04;;;;;;;13.60;6.20;;;;;;;16.11;81.40;101536.75;4973749;28;20057;-62
2021/09/14 00:21:32;;;;;;;10.45;6.53;;;;;;;16.06;81.27;101531.31;4973240;28;20131;-62
2021/09/14 00:24:00;;;;;;;9.63;6.13;;;;;;;15.95;82.07;101535.25;4973605;28;20078;-61
2021/09/14 00:26:27;;;;;;;11.18;6.50;;;;;;;15.92;81.80;101528.41;4973258;28;20039;-61
2021/09/14 00:28:55;;;;;;;10.40;6.85;;;;;;;15.93;82.13;101530.03;4973501;28;20058;-62
2021/09/14 00:31:22;;;;;;;10.68;6.45;;;;;;;15.95;82.04;101538.00;4973587;28;20058;-62
2021/09/14 00:33:50;;;;;;;9.02;5.43;;;;;;;15.98;81.58;101534.69;4974838;28;20055;-62
2021/09/14 00:36:17;;;;;;;11.60;6.90;;;;;;;15.89;81.56;101528.97;4980994;28;20054;-62
2021/09/14 00:38:45;;;;;;;10.38;5.82;;;;;;;15.86;82.03;101517.72;4979304;28;20429;-62
2021/09/14 00:41:13;;;;;;;8.30;5.68;;;;;;;15.89;81.70;101517.16;4979248;28;20045;-61
2021/09/14 00:43:41;;;;;;;13.50;7.80;;;;;;;15.90;81.59;101516.06;4977122;28;20042;-62
2021/09/14 00:46:10;;;;;;;11.70;7.18;;;;;;;15.83;81.52;101521.06;4975971;28;20042;-61
2021/09/14 00:48:37;;;;;;;10.02;6.13;;;;;;;15.79;82.04;101514.50;4971912;28;20054;-61
2021/09/14 00:51:05;;;;;;;10.30;5.85;;;;;;;15.76;82.02;101518.63;4972928;28;20130;-61
2021/09/14 00:53:33;;;;;;;13.20;7.13;;;;;;;15.81;81.65;101515.03;4973048;28;20042;-61
2021/09/14 00:56:01;;;;;;;11.57;6.15;;;;;;;15.78;81.33;101521.91;4955860;28;20063;-62
2021/09/14 00:58:31;;;;;;;10.45;6.55;;;;;;;15.75;81.25;101520.56;4973148;28;20073;-62
2021/09/14 01:00:58;;;;;;;11.27;6.70;;;;;;;15.73;81.98;101519.22;4973059;28;20047;-61
2021/09/14 01:03:26;;;;;;;12.13;6.78;;;;;;;15.74;81.34;101526.34;4971686;28;20490;-61
2021/09/14 01:05:54;;;;;;;10.75;6.07;;;;;;;15.74;81.58;101521.66;4971505;28;20134;-60
2021/09/14 01:08:22;;;;;;;11.88;7.00;;;;;;;15.70;81.66;101517.81;4972761;28;20058;-61
2021/09/14 01:10:51;;;;;;;10.70;6.47;;;;;;;15.68;81.70;101519.19;4956056;28;20134;-61
2021/09/14 01:13:19;;;;;;;8.07;5.65;;;;;;;15.69;81.47;101524.41;4971909;28;20046;-61
2021/09/14 01:15:46;;;;;;;13.85;7.28;;;;;;;15.71;81.28;101511.25;4973240;28;20053;-61
2021/09/14 01:18:14;;;;;;;12.23;5.85;;;;;;;15.69;81.43;101524.41;4988120;28;20117;-60
2021/09/14 01:20:42;;;;;;;11.07;7.43;;;;;;;15.66;80.83;101527.72;4972087;28;20070;-61
2021/09/14 01:23:10;;;;;;;12.02;7.18;;;;;;;15.64;81.20;101527.19;4971670;28;20046;-61
2021/09/14 01:25:38;;;;;;;10.85;6.38;;;;;;;15.62;81.32;101528.59;4987770;28;20057;-61
2021/09/14 01:28:08;;;;;;;10.38;6.93;;;;;;;15.65;80.95;101519.78;4987816;28;20540;-61
2021/09/14 01:30:38;;;;;;;13.88;7.90;;;;;;;15.61;80.85;101521.44;4972168;28;20606;-61
2021/09/14 01:33:07;;;;;;;10.18;6.85;;;;;;;15.57;81.45;101518.44;4973311;28;20054;-61
2021/09/14 01:35:38;;;;;;;11.77;6.13;;;;;;;15.54;81.52;101522.59;4959671;28;20465;-61
2021/09/14 01:38:10;;;;;;;9.77;6.40;;;;;;;15.56;81.44;101516.78;4971444;28;20049;-61
2021/09/14 01:40:40;;;;;;;10.95;7.28;;;;;;;15.62;81.19;101517.59;4971157;28;20058;-61
2021/09/14 01:43:09;;;;;;;12.20;7.72;;;;;;;15.60;80.67;101517.88;4971381;28;20109;-61
2021/09/14 01:45:38;;;;;;;13.93;6.45;;;;;;;15.55;81.16;101509.66;4987536;28;20109;-60
2021/09/14 01:48:09;;;;;;;12.73;7.72;;;;;;;15.50;81.24;101515.19;4985741;28;20038;-61
2021/09/14 01:50:40;;;;;;;13.65;7.28;;;;;;;15.48;81.84;101522.91;4987548;28;20047;-61
2021/09/14 01:53:08;;;;;;;11.55;7.40;;;;;;;15.43;81.12;101514.69;4987078;28;20119;-61
2021/09/14 01:55:39;;;;;;;10.30;7.22;;;;;;;15.42;81.77;101513.06;4955490;28;20501;-61
2021/09/14 01:58:06;;;;;;;12.48;8.50;;;;;;;15.36;81.64;101503.19;4972498;28;20070;-61
2021/09/14 02:00:39;;;;;;;10.02;6.97;;;;;;;15.32;82.07;101503.78;4971108;28;20446;-61
2021/09/14 02:39:21;;;;;;;12.05;8.48;;;;;;;15.14;82.31;101493.44;4990595;28;20049;-62
2021/09/14 02:42:00;;;;;;;15.50;9.15;;;;;;;15.12;81.83;101490.13;4974118;28;20058;-58
2021/09/14 03:01:02;;;;;;;12.73;8.10;;;;;;;15.02;82.32;101471.00;4989622;28;20449;-61
2021/09/14 03:03:30;;;;;;;14.40;8.50;;;;;;;15.07;82.15;101463.53;4974114;28;20105;-62
2021/09/14 03:05:58;;;;;;;13.43;8.70;;;;;;;15.09;81.44;101455.03;4974772;28;20075;-59
2021/09/14 03:08:26;;;;;;;13.32;7.13;;;;;;;15.04;81.83;101455.88;4975160;28;20043;-62
2021/09/14 03:10:54;;;;;;;12.98;8.27;;;;;;;15.06;81.58;101459.16;4973608;28;20490;-62
2021/09/14 03:13:22;;;;;;;11.00;6.88;;;;;;;15.06;82.17;101445.44;4973312;28;20047;-60
2021/09/14 03:15:50;;;;;;;12.35;7.47;;;;;;;15.12;81.58;101457.19;4973518;28;20387;-61
2021/09/14 03:18:18;;;;;;;12.25;8.07;;;;;;;15.09;81.45;101455.84;4989802;28;20075;-62
2021/09/14 03:20:46;;;;;;;13.65;8.52;;;;;;;15.10;81.51;101465.75;4973650;28;20118;-61
2021/09/14 03:23:13;;;;;;;12.80;8.40;;;;;;;15.09;81.26;101457.78;4973532;28;20082;-62
2021/09/14 03:25:41;;;;;;;17.48;7.75;;;;;;;15.06;81.69;101456.41;4973523;28;20046;-62
2021/09/14 03:28:11;;;;;;;13.85;7.57;;;;;;;15.04;81.40;101446.84;4973419;28;20490;-62
2021/09/14 03:30:39;;;;;;;13.77;8.30;;;;;;;14.98;81.08;101447.94;4971943;28;20121;-61
2021/09/14 03:33:07;;;;;;;14.43;9.13;;;;;;;14.91;81.70;101442.75;4974129;28;20098;-61
2021/09/14 03:35:34;;;;;;;12.20;8.50;;;;;;;14.82;81.77;101434.31;4957745;28;20141;-62
2021/09/14 03:38:03;;;;;;;12.40;8.57;;;;;;;14.75;82.58;101428.31;4974674;28;20446;-62
2021/09/14 03:40:32;;;;;;;10.80;7.95;;;;;;;14.72;82.70;101426.13;4972976;28;20042;-62
2021/09/14 03:43:00;;;;;;;10.90;7.15;;;;;;;14.77;82.86;101428.84;4988936;28;20050;-61
2021/09/14 03:45:28;;;;;;;16.00;7.95;;;;;;;14.81;81.91;101429.91;4957020;28;20055;-62
2021/09/14 03:47:55;;;;;;;10.00;6.88;;;;;;;14.78;82.42;101416.78;4989265;28;20446;-62
2021/09/14 03:50:24;;;;;;;12.20;6.82;;;;;;;14.86;82.01;101407.97;4972854;28;20485;-62
2021/09/14 03:52:52;;;;;;;13.00;8.90;;;;;;;14.90;81.74;101409.03;4989113;28;20154;-62
2021/09/14 03:55:20;;;;;;;12.55;8.55;;;;;;;14.84;81.68;101399.19;4972340;28;20486;-62
2021/09/14 03:57:49;;;;;;;15.57;8.38;;;;;;;14.79;82.25;101401.97;4972821;28;20059;-62
2021/09/14 04:00:17;;;;;;;12.07;8.55;;;;;;;14.86;81.91;101397.00;4972601;28;20525;-62
2021/09/14 04:03:38;;;;;;;9.77;6.20;;;;;;;14.85;82.15;101392.59;4973073;28;20082;-62
2021/09/14 04:06:23;;;;;;;12.68;8.40;;;;;;;14.84;81.79;101393.69;4968204;28;20142;-57
2021/09/14 04:08:51;;;;;;;13.30;8.07;;;;;;;14.82;81.58;101393.16;4972848;28;20501;-61
2021/09/14 04:11:49;;;;;;;12.25;7.50;;;;;;;14.78;82.06;101404.97;4972413;28;20097;-61
2021/09/14 04:14:16;;;;;;;12.55;8.60;;;;;;;14.70;81.89;101403.66;4972366;28;20047;-61
2021/09/14 04:16:46;;;;;;;10.20;7.03;;;;;;;14.63;82.55;101405.88;4989077;28;20054;-62
2021/09/14 04:19:14;;;;;;;12.57;8.45;;;;;;;14.66;82.66;101406.13;4988642;28;20567;-61
2021/09/14 04:21:42;;;;;;;11.68;8.02;;;;;;;14.63;82.26;101408.63;4972819;28;20118;-62
2021/09/14 04:24:14;;;;;;;12.20;8.57;;;;;;;14.60;82.48;101415.50;4972544;28;20047;-61
2021/09/14 04:26:41;;;;;;;12.82;8.13;;;;;;;14.59;83.19;101413.00;4956564;28;20055;-62
2021/09/14 04:29:09;;;;;;;16.83;8.05;;;;;;;14.63;82.97;101414.09;4973295;28;20059;-62
2021/09/14 04:31:37;;;;;;;11.15;7.68;;;;;;;14.68;83.05;101416.81;4972099;28;20046;-62
2021/09/14 04:34:04;;;;;;;12.30;8.32;;;;;;;14.71;82.36;101421.75;4973285;28;20065;-62
2021/09/14 04:36:32;;;;;;;9.85;6.68;;;;;;;14.70;82.08;101431.91;4972111;28;20047;-62
2021/09/14 04:39:02;;;;;;;12.57;8.45;;;;;;;14.70;81.89;101431.91;4972244;28;20054;-61
2021/09/14 04:41:30;;;;;;;11.43;7.53;;;;;;;14.68;82.45;101430.53;4987027;28;20101;-61
2021/09/14 04:43:58;;;;;;;14.43;8.48;;;;;;;14.72;82.50;101428.88;4972317;28;20490;-61
2021/09/14 04:46:25;;;;;;;13.57;8.23;;;;;;;14.76;81.95;101426.38;4973422;28;20043;-62
2021/09/14 04:48:53;;;;;;;13.23;9.63;;;;;;;14.70;81.87;101425.59;4972047;28;20074;-62
2021/09/14 04:51:21;;;;;;;13.10;7.90;;;;;;;14.62;82.47;101416.03;4972000;28;20054;-62
2021/09/14 04:53:48;;;;;;;12.02;8.63;;;;;;;14.60;82.05;101410.00;4972745;28;20039;-62
2021/09/14 04:56:17;;;;;;;13.35;8.90;;;;;;;14.59;82.16;101413.00;4970908;28;20057;-61
2021/09/14 04:58:46;;;;;;;14.77;9.23;;;;;;;14.58;82.13;101409.47;4971871;28;20054;-61
2021/09/14 05:01:17;;;;;;;12.52;8.45;;;;;;;14.58;82.40;101414.13;4972177;28;20030;-62
2021/09/14 05:03:46;;;;;;;12.90;8.73;;;;;;;14.59;82.53;101418.50;4987870;28;20058;-61
2021/09/14 05:06:14;;;;;;;15.70;8.27;;;;;;;14.61;82.12;101416.31;4987770;28;20043;-58
2021/09/14 05:08:42;;;;;;;11.18;7.72;;;;;;;14.60;82.38;101415.50;4972913;28;20055;-62
2021/09/14 05:11:13;;;;;;;17.83;10.27;;;;;;;14.63;82.12;101409.44;4987260;28;20039;-62
2021/09/14 05:13:41;;;;;;;12.57;9.05;;;;;;;14.62;82.31;101405.06;4971732;28;20054;-61
2021/09/14 05:16:08;;;;;;;10.93;7.88;;;;;;;14.64;82.24;101405.56;4971683;28;20219;-61
2021/09/14 05:18:57;;;;;;;19.70;10.77;;;;;;;14.56;82.13;101413.59;4913005;29;20435;-60
2021/09/14 05:21:25;;;;;;;12.88;9.10;;;;;;;14.49;82.58;101408.38;4912967;29;20052;-61
2021/09/14 05:23:52;;;;;;;14.95;9.63;;;;;;;14.47;82.64;101416.84;4912925;29;20086;-61
2021/09/14 05:26:22;;;;;;;14.70;9.30;;;;;;;14.44;83.09;101411.13;4912559;29;20040;-60
2021/09/14 05:28:49;;;;;;;12.15;8.40;;;;;;;14.46;82.95;101412.50;4913194;29;20052;-61
2021/09/14 05:31:17;;;;;;;13.18;9.27;;;;;;;14.55;83.29;101414.66;4912969;29;20060;-61
2021/09/14 05:33:46;;;;;;;16.05;8.48;;;;;;;14.64;83.00;101421.22;4912865;29;20083;-62
2021/09/14 05:36:14;;;;;;;13.10;9.13;;;;;;;14.68;82.31;101416.81;4912797;29;20729;-62
2021/09/14 05:38:42;;;;;;;13.10;8.95;;;;;;;14.64;82.13;101405.56;4890349;29;20083;-62
2021/09/14 05:41:10;;;;;;;12.73;8.27;;;;;;;14.62;82.67;101401.47;4875775;29;20044;-62
2021/09/14 05:43:37;;;;;;;16.10;9.95;;;;;;;14.63;82.57;101403.13;4886835;29;20551;-62
2021/09/14 05:46:05;;;;;;;14.13;10.02;;;;;;;14.57;82.53;101402.31;4913159;29;20561;-59
2021/09/14 05:48:35;;;;;;;14.85;9.98;;;;;;;14.49;82.95;101403.69;4897018;29;20052;-59
2021/09/14 05:51:04;;;;;;;14.50;10.50;;;;;;;14.47;82.86;101397.66;4912925;29;20132;-57
2021/09/14 05:53:39;;;;;;;12.32;9.63;;;;;;;14.46;83.05;101398.78;4877170;29;20136;-62
2021/09/14 05:56:07;;;;;;;17.33;11.18;;;;;;;14.46;83.05;101393.28;4931437;28;20074;-61
2021/09/14 05:58:35;;;;;;;14.25;10.07;;;;;;;14.41;83.54;101385.09;4986198;28;20050;-60
2021/09/14 06:01:03;;;;;;;18.90;11.98;;;;;;;14.39;83.37;101387.28;4987309;28;20054;-57
2021/09/14 06:03:33;;;;;;;15.13;10.88;;;;;;;14.33;83.90;101380.16;4976236;28;20043;-55
2021/09/14 06:06:05;;;;;;;22.27;15.77;;;;;;;14.35;84.23;101369.75;4974662;28;20043;-58
2021/09/14 06:08:33;;;;;;;17.35;12.65;;;;;;;14.40;84.24;101380.69;4990932;28;20058;-60
2021/09/14 06:11:01;;;;;;;15.80;11.43;;;;;;;14.47;84.18;101372.97;4965376;28;20047;-61
2021/09/14 06:13:29;;;;;;;16.05;10.00;;;;;;;14.48;84.17;101385.63;4977920;28;20077;-58
2021/09/14 06:15:56;;;;;;;19.40;14.38;;;;;;;14.56;83.74;101388.91;4977292;28;20050;-61
2021/09/14 06:18:26;;;;;;;20.73;14.85;;;;;;;14.58;83.66;101394.94;4999186;28;20440;-61
2021/09/14 06:20:55;;;;;;;17.63;12.43;;;;;;;14.58;83.80;101394.94;4980964;28;20045;-60
2021/09/14 06:23:24;;;;;;;24.73;17.42;;;;;;;14.58;83.78;101398.50;4975766;28;20119;-61
2021/09/14 06:25:54;;;;;;;25.58;20.52;;;;;;;14.55;84.04;101393.56;4992064;28;20035;-58
2021/09/14 06:28:22;;;;;;;19.73;13.02;;;;;;;14.55;84.08;101400.97;4969977;28;20043;-60
2021/09/14 06:30:49;;;;;;;21.55;12.52;;;;;;;14.54;84.43;101396.59;4981756;28;20568;-59
2021/09/14 06:33:21;;;;;;;17.00;12.40;;;;;;;14.58;84.18;101397.69;4987756;28;20046;-60
2021/09/14 06:35:52;;;;;;;27.80;13.07;;;;;;;14.61;84.47;101400.66;4971600;28;20063;-59
2021/09/14 06:38:25;;;;;;;19.80;12.73;;;;;;;14.62;84.44;101391.34;4973101;28;20070;-59
2021/09/14 06:40:54;;;;;;;20.13;10.73;;;;;;;14.70;84.13;101398.16;4990138;28;20043;-58
2021/09/14 06:43:27;;;;;;;17.77;10.80;;;;;;;14.79;83.91;101404.72;4990522;28;20101;-58
2021/09/14 06:46:23;;;;;;;19.45;10.13;;;;;;;14.82;83.69;101408.81;4974825;28;20142;-58
2021/09/14 06:49:08;;;;;;;23.15;12.68;;;;;;;14.84;83.43;101410.16;4977681;28;20046;-60
2021/09/14 06:51:36;;;;;;;17.42;12.63;;;;;;;14.83;83.26;101392.03;4974990;28;20051;-62
2021/09/14 06:54:03;;;;;;;15.13;9.70;;;;;;;14.88;84.27;101391.19;4974971;28;20125;-61
2021/09/14 06:56:31;;;;;;;18.23;12.43;;;;;;;14.93;83.38;101384.88;4973533;28;20381;-60
2021/09/14 06:58:59;;;;;;;18.38;12.05;;;;;;;14.89;83.21;101385.44;4974031;28;20517;-60
2021/09/14 07:01:26;;;;;;;18.48;10.55;;;;;;;14.91;83.57;101385.13;4975463;28;20122;-60
2021/09/14 07:03:55;;;;;;;14.70;10.68;;;;;;;14.91;83.32;101382.41;4973776;28;20101;-59
2021/09/14 07:06:22;;;;;;;17.25;9.70;;;;;;;14.97;83.26;101377.72;4974315;28;20118;-60
2021/09/14 07:08:50;;;;;;;15.13;11.23;;;;;;;15.03;82.92;101374.66;4974826;28;20045;-56
2021/09/14 07:11:18;;;;;;;14.60;10.48;;;;;;;14.98;83.23;101379.34;4961636;28;20509;-58
2021/09/14 07:13:45;;;;;;;18.65;10.77;;;;;;;15.00;83.48;101377.94;4975214;28;20098;-58
2021/09/14 07:16:13;;;;;;;15.30;9.82;;;;;;;14.99;83.18;101373.59;4974552;28;20047;-59
2021/09/14 07:18:41;;;;;;;14.77;9.88;;;;;;;15.05;83.83;101385.34;4973813;28;20062;-59
2021/09/14 07:21:09;;;;;;;19.27;13.07;;;;;;;15.07;83.75;101378.47;4980651;28;20126;-58
2021/09/14 07:23:36;;;;;;;17.27;11.23;;;;;;;15.03;83.70;101380.16;4974460;28;20126;-59
2021/09/14 07:26:04;;;;;;;16.17;11.10;;;;;;;15.04;84.19;101370.00;4974138;28;20043;-59
2021/09/14 07:28:32;;;;;;;19.42;13.15;;;;;;;15.05;84.52;101361.44;4974414;28;20498;-60
2021/09/14 07:31:03;;;;;;;15.00;9.07;;;;;;;15.08;84.51;101363.66;4991581;28;20122;-58
2021/09/14 07:33:31;;;;;;;16.52;11.50;;;;;;;15.23;84.06;101376.44;4991327;28;20042;-60
2021/09/14 07:35:58;;;;;;;17.45;12.07;;;;;;;15.24;83.39;101380.81;4991830;28;20141;-60
2021/09/14 07:38:27;;;;;;;15.63;10.35;;;;;;;15.22;83.66;101383.00;4992414;28;20061;-60
2021/09/14 07:40:55;;;;;;;17.38;11.40;;;;;;;15.24;83.91;101380.81;4984996;28;20066;-55
2021/09/14 07:43:22;;;;;;;17.45;9.82;;;;;;;15.29;83.45;101375.28;4988506;28;20417;-59
2021/09/14 07:45:50;;;;;;;20.90;11.98;;;;;;;15.32;84.15;101376.63;4974234;28;20038;-59
2021/09/14 07:48:17;;;;;;;14.68;9.48;;;;;;;15.36;83.78;101374.16;4973577;28;20043;-59
2021/09/14 07:50:45;;;;;;;14.45;10.48;;;;;;;15.42;83.66;101386.75;4974155;28;20034;-60
2021/09/14 07:53:13;;;;;;;15.65;10.25;;;;;;;15.45;83.55;101381.47;4973719;28;20035;-59
2021/09/14 07:55:40;;;;;;;20.05;11.05;;;;;;;15.49;83.70;101379.81;4973949;28;20043;-59
2021/09/14 07:58:08;;;;;;;20.13;11.98;;;;;;;15.52;84.20;101375.66;4973954;28;20117;-59
2021/09/14 08:00:36;;;;;;;16.73;11.52;;;;;;;15.54;83.96;101379.75;4973809;28;20043;-59
2021/09/14 08:03:03;;;;;;;15.32;9.93;;;;;;;15.60;83.70;101376.97;4973590;28;20043;-57
2021/09/14 08:05:31;;;;;;;20.88;12.63;;;;;;;15.66;84.51;101381.31;4973355;28;20490;-60
2021/09/14 08:07:59;;;;;;;16.20;10.98;;;;;;;15.68;83.94;101385.41;4972784;28;20043;-61
2021/09/14 08:10:26;;;;;;;17.70;10.52;;;;;;;15.75;83.56;101385.94;4973833;28;20039;-59
2021/09/14 08:12:54;;;;;;;19.77;11.20;;;;;;;15.82;83.41;101382.81;4973562;28;20047;-60
2021/09/14 08:15:23;;;;;;;21.13;13.63;;;;;;;15.90;83.46;101382.22;4973971;28;20046;-60
2021/09/14 08:17:50;;;;;;;18.00;10.23;;;;;;;15.95;83.73;101379.41;4972537;28;20486;-58
2021/09/14 08:20:18;;;;;;;20.50;13.57;;;;;;;16.02;83.49;101379.06;4973361;28;20038;-60
2021/09/14 08:22:45;;;;;;;16.27;10.00;;;;;;;16.09;82.86;101379.53;4973612;28;20122;-60
2021/09/14 08:25:13;;;;;;;14.00;8.52;;;;;;;16.12;82.11;101378.97;4972288;28;20057;-58
2021/09/14 08:27:41;;;;;;;13.85;8.88;;;;;;;16.12;82.56;101373.47;4973170;28;20046;-53
2021/09/14 08:30:12;;;;;;;11.52;8.05;;;;;;;16.14;82.99;101376.75;4972303;28;20050;-59
2021/09/14 08:32:39;;;;;;;19.42;11.77;;;;;;;16.16;83.40;101374.53;4972074;28;20049;-59
2021/09/14 08:35:07;;;;;;;20.58;11.18;;;;;;;16.23;82.50;101373.34;4959552;28;20073;-61
2021/09/14 08:37:35;;;;;;;19.13;11.80;;;;;;;16.26;82.43;101383.75;4972224;28;20517;-60
2021/09/14 08:40:03;;;;;;;15.85;8.60;;;;;;;16.31;82.16;101381.78;4973187;28;20601;-60
2021/09/14 08:42:36;;;;;;;19.13;12.32;;;;;;;16.39;81.52;101385.78;4973252;28;20034;-60
2021/09/14 08:45:07;;;;;;;20.50;13.18;;;;;;;16.43;82.09;101395.09;4973205;28;20055;-59
2021/09/14 08:47:38;;;;;;;15.38;11.63;;;;;;;16.49;81.26;101382.09;4972991;28;20093;-60
2021/09/14 08:50:07;;;;;;;20.02;14.48;;;;;;;16.54;81.48;101382.84;4972638;28;20043;-60
2021/09/14 08:52:35;;;;;;;13.05;8.70;;;;;;;16.63;80.30;101383.03;4971914;28;20470;-57
2021/09/14 08:55:04;;;;;;;20.83;13.00;;;;;;;16.69;80.46;101378.25;4971678;28;20065;-60
2021/09/14 08:57:31;;;;;;;15.52;9.10;;;;;;;16.73;80.06;101380.13;4972807;28;20039;-60
2021/09/14 08:59:59;;;;;;;15.25;9.82;;;;;;;16.73;80.11;101382.06;4972976;28;20043;-59
2021/09/14 09:02:26;;;;;;;18.88;10.77;;;;;;;16.74;80.75;101378.19;4972796;28;20045;-61
2021/09/14 09:05:01;;;;;;;17.38;12.48;;;;;;;16.75;81.30;101380.66;4973160;28;20082;-60
2021/09/14 09:07:38;;;;;;;13.95;8.18;;;;;;;16.80;80.60;101374.28;4972782;28;20079;-59
2021/09/14 09:10:16;;;;;;;17.35;11.50;;;;;;;16.87;79.73;101377.50;4971803;28;20051;-60
2021/09/14 09:12:46;;;;;;;15.48;10.93;;;;;;;16.91;80.82;101380.47;4971660;28;20131;-60
2021/09/14 09:15:31;;;;;;;17.65;10.88;;;;;;;16.93;80.65;101378.22;4972532;28;20043;-60
2021/09/14 09:18:09;;;;;;;18.17;13.32;;;;;;;16.95;81.10;101382.31;4972652;28;20070;-60
2021/09/14 09:20:40;;;;;;;24.70;14.23;;;;;;;16.98;81.60;101383.66;4972780;28;20042;-59
2021/09/14 09:23:13;;;;;;;17.73;11.98;;;;;;;17.00;81.16;101379.53;4972576;28;20062;-57
2021/09/14 09:25:40;;;;;;;18.42;12.27;;;;;;;17.01;81.47;101378.41;4972826;28;20122;-60
2021/09/14 09:28:11;;;;;;;19.13;12.80;;;;;;;17.06;82.10;101380.25;4973905;28;20487;-60
2021/09/14 09:30:50;;;;;;;17.55;12.45;;;;;;;17.10;81.98;101363.94;4976540;28;20039;-59
2021/09/14 09:33:27;;;;;;;16.77;10.77;;;;;;;17.12;81.46;101357.03;4976018;28;20043;-61
2021/09/14 09:36:06;;;;;;;14.77;10.32;;;;;;;17.16;81.49;101343.50;4976729;28;20043;-58
2021/09/14 09:38:55;;;;;;;18.98;12.35;;;;;;;17.22;81.20;101345.03;4959296;28;20049;-60
2021/09/14 09:41:23;;;;;;;16.20;11.02;;;;;;;17.23;81.10;101336.47;4974972;28;20130;-60
2021/09/14 09:43:51;;;;;;;13.55;8.52;;;;;;;17.24;80.48;101337.28;4976747;28;20518;-61
2021/09/14 09:46:22;;;;;;;15.93;11.27;;;;;;;17.24;80.64;101343.63;4974496;28;20042;-59
2021/09/14 09:48:49;;;;;;;20.67;12.60;;;;;;;17.26;81.68;101340.56;4988320;28;20049;-61
2021/09/14 09:51:17;;;;;;;17.10;12.05;;;;;;;17.30;81.27;101338.84;4977756;28;20050;-60
2021/09/14 09:53:46;;;;;;;16.10;10.73;;;;;;;17.33;80.97;101329.97;4976022;28;20121;-60
2021/09/14 09:56:13;;;;;;;23.27;12.68;;;;;;;17.40;81.47;101344.19;4974434;28;20411;-60
2021/09/14 09:58:42;;;;;;;16.10;9.50;;;;;;;17.48;80.43;101341.84;4974775;28;20042;-58
2021/09/14 10:01:15;;;;;;;20.95;13.15;;;;;;;17.55;80.52;101342.28;4975503;28;20042;-59
2021/09/14 10:03:53;;;;;;;18.90;12.30;;;;;;;17.63;80.23;101338.81;4974906;28;20070;-60
2021/09/14 10:06:22;;;;;;;17.67;10.93;;;;;;;17.67;79.83;101346.19;4975110;28;20098;-59
2021/09/14 10:08:53;;;;;;;28.33;19.70;;;;;;;17.73;79.33;101332.34;4975812;28;20043;-59
2021/09/14 10:11:30;;;;;;;19.35;13.80;;;;;;;17.78;78.76;101341.31;4974286;28;20051;-59
2021/09/14 10:14:12;;;;;;;18.65;14.93;;;;;;;17.87;78.30;101345.03;4975519;28;20043;-59
2021/09/14 10:16:45;;;;;;;28.70;18.30;;;;;;;17.97;78.12;101345.97;4975240;28;20047;-60
2021/09/14 10:19:27;;;;;;;23.73;16.63;;;;;;;18.06;77.78;101347.72;4975692;28;20480;-60
2021/09/14 10:22:03;;;;;;;18.25;13.43;;;;;;;18.12;77.46;101339.34;4975644;28;20054;-60
2021/09/14 10:24:31;;;;;;;;;;;;;;;18.14;77.95;101331.59;4975711;28;20101;-59
2021/09/14 10:27:04;;;;;;;19.98;13.85;;;;;;;18.18;77.07;101340.84;4975616;28;20025;-60
2021/09/14 10:29:32;;;;;;;22.42;14.32;;;;;;;18.23;77.69;101336.06;4974863;28;20101;-59
2021/09/14 10:32:05;;;;;;;19.17;13.40;;;;;;;18.30;76.60;101324.59;4975346;28;20043;-61
2021/09/14 10:34:34;;;;;;;17.10;11.98;;;;;;;18.33;75.46;101325.94;4974538;28;20081;-60
2021/09/14 10:37:04;;;;;;;16.88;11.38;;;;;;;18.38;75.86;101321.13;4975606;28;20047;-61
2021/09/14 10:39:39;;;;;;;15.70;11.50;;;;;;;18.44;75.79;101319.88;4974774;28;20114;-60
2021/09/14 10:42:21;;;;;;;18.42;12.07;;;;;;;18.53;75.82;101317.22;4974984;28;20047;-61
2021/09/14 10:44:51;;;;;;;17.73;12.07;;;;;;;18.55;75.80;101320.50;4974889;28;20086;-61
2021/09/14 10:47:21;;;;;;;20.02;15.32;;;;;;;18.57;75.61;101320.16;4975029;28;20038;-61
2021/09/14 10:49:53;;;;;;;15.98;10.80;;;;;;;18.64;75.38;101315.88;4975545;28;20545;-58
2021/09/14 10:52:35;;;;;;;16.98;10.30;;;;;;;18.67;75.25;101315.25;4973864;28;20130;-60
2021/09/14 10:55:10;;;;;;;14.98;9.65;;;;;;;18.68;74.58;101310.53;4974643;28;20047;-60
2021/09/14 10:57:46;;;;;;;14.27;9.40;;;;;;;18.68;74.39;101319.63;4973526;28;20081;-60
2021/09/14 11:00:19;;;;;;;17.58;10.50;;;;;;;18.72;74.25;101314.31;4974782;28;20457;-61
2021/09/14 11:03:00;;;;;;;13.93;9.73;;;;;;;18.74;74.24;101306.53;4973799;28;20109;-56
2021/09/14 11:05:33;;;;;;;14.80;10.10;;;;;;;18.76;74.22;101300.69;4973585;28;20046;-58
2021/09/14 11:08:02;;;;;;;15.32;8.85;;;;;;;18.76;74.40;101295.16;4969374;28;20035;-60
2021/09/14 11:10:35;;;;;;;15.13;8.27;;;;;;;18.78;74.54;101296.53;4974975;28;20119;-61
2021/09/14 11:13:04;;;;;;;12.52;8.50;;;;;;;18.79;73.94;101286.31;4971645;28;20042;-61
2021/09/14 11:15:32;;;;;;;13.57;9.13;;;;;;;18.79;74.32;101287.13;4974374;28;20046;-61
2021/09/14 11:18:00;;;;;;;15.55;9.80;;;;;;;18.87;73.77;101280.03;4974835;28;20039;-61
2021/09/14 11:20:30;;;;;;;13.30;8.23;;;;;;;18.93;73.59;101276.03;4974818;28;20482;-61
2021/09/14 11:22:59;;;;;;;15.30;9.65;;;;;;;18.97;73.33;101271.50;4956911;28;20151;-61
2021/09/14 11:25:29;;;;;;;14.43;8.45;;;;;;;19.04;72.61;101266.34;4974402;28;20058;-61
2021/09/14 11:28:02;;;;;;;17.48;9.25;;;;;;;19.06;72.19;101275.16;4973805;28;20035;-61
2021/09/14 11:30:32;;;;;;;13.80;8.80;;;;;;;19.09;72.22;101268.97;4974620;28;20102;-61
2021/09/14 11:33:00;;;;;;;14.48;8.20;;;;;;;19.10;72.71;101265.09;4973998;28;20046;-62
2021/09/14 11:35:29;;;;;;;13.48;8.52;;;;;;;19.16;73.27;101269.34;4974475;28;20425;-61
2021/09/14 11:38:05;;;;;;;15.25;8.30;;;;;;;19.31;72.86;101267.34;4974522;28;20049;-61
2021/09/14 11:40:35;;;;;;;11.50;8.20;;;;;;;19.40;72.27;101262.69;4974451;28;20050;-61
2021/09/14 11:43:07;;;;;;;15.43;9.00;;;;;;;19.44;71.99;101269.22;4972347;28;20046;-60
2021/09/14 11:45:37;;;;;;;20.23;8.10;;;;;;;19.45;71.44;101265.28;4975795;28;20489;-60
2021/09/14 11:48:18;;;;;;;13.52;7.50;;;;;;;19.43;71.66;101255.69;4978010;28;20409;-60
2021/09/14 11:50:46;;;;;;;13.10;8.57;;;;;;;19.48;70.58;101250.88;4977812;28;20063;-61
2021/09/14 11:53:16;;;;;;;13.43;7.43;;;;;;;19.54;70.76;101251.53;4975585;28;20127;-60
2021/09/14 11:55:47;;;;;;;14.57;9.55;;;;;;;19.62;70.30;101244.41;4976656;28;20031;-61
2021/09/14 11:58:35;;;;;;;14.10;8.50;;;;;;;19.71;70.73;101251.63;4976484;28;20043;-61
2021/09/14 12:01:09;;;;;;;11.60;7.68;;;;;;;19.82;70.35;101249.41;4977381;28;20453;-61
2021/09/14 12:03:48;;;;;;;12.07;6.18;;;;;;;19.83;69.96;101247.44;4977743;28;20129;-59
2021/09/14 12:06:31;;;;;;;12.55;8.07;;;;;;;19.84;69.57;101252.63;4975783;28;20038;-61
2021/09/14 12:09:02;;;;;;;16.15;7.63;;;;;;;19.83;69.63;101252.97;4973740;28;20053;-61
2021/09/14 12:11:31;;;;;;;12.30;7.53;;;;;;;19.83;70.02;101252.97;4974046;28;20039;-60
2021/09/14 12:14:09;;;;;;;13.25;8.30;;;;;;;19.84;69.87;101252.63;4973882;28;20045;-58
2021/09/14 12:16:40;;;;;;;14.07;8.50;;;;;;;19.87;69.88;101253.97;4974170;28;20053;-62
2021/09/14 12:19:10;;;;;;;13.13;7.90;;;;;;;19.89;69.57;101251.69;4973778;28;20051;-61
2021/09/14 12:21:38;;;;;;;12.15;7.60;;;;;;;19.92;70.38;101243.56;4973866;28;20039;-58